Time;durP1;ratioP1;P1;durP2;ratioP2;P2;SDS_P1;SDS_P2;PMS_P1;PMS_P2;Temp;Humidity;BMP_temperature;BMP_pressure;BME280_temperature;BME280_humidity;BME280_pressure;Samples;Min_cycle;Max_cycle;Signal;HPM_P1;HPM_P2
2022/10/07 00:01:41;;;;;;;0.20;0.10;;;;;;;;;;4927388;28;20689;-89
2022/10/07 00:07:17;;;;;;;0.20;0.10;;;;;;;;;;4900741;29;20048;-90
2022/10/07 00:09:46;;;;;;;0.20;0.10;;;;;;;;;;4896001;29;20040;-89
2022/10/07 00:12:15;;;;;;;0.20;0.15;;;;;;;;;;4901111;29;20066;-89
2022/10/07 00:14:41;;;;;;;0.20;0.10;;;;;;;;;;4910257;29;20059;-89
2022/10/07 00:17:07;;;;;;;0.20;0.10;;;;;;;;;;4930863;28;20192;-90
2022/10/07 00:19:33;;;;;;;5.57;0.47;;;;;;;;;;4898378;29;20048;-89
2022/10/07 00:22:05;;;;;;;0.20;0.10;;;;;;;;;;4914879;29;20152;-90
2022/10/07 00:24:34;;;;;;;0.20;0.20;;;;;;;;;;4913094;29;20813;-93
2022/10/07 00:27:34;;;;;;;0.20;0.10;;;;;;;;;;4912900;29;20087;-91
2022/10/07 00:30:12;;;;;;;0.20;0.10;;;;;;;;;;4913564;29;20048;-91
2022/10/07 00:33:00;;;;;;;0.20;0.10;;;;;;;;;;4915515;29;20059;-91
2022/10/07 00:38:38;;;;;;;0.20;0.10;;;;;;;;;;4894023;29;20055;-90
2022/10/07 00:41:37;;;;;;;0.20;0.10;;;;;;;;;;4913155;29;20040;-90
2022/10/07 00:44:25;;;;;;;0.20;0.10;;;;;;;;;;4914035;29;20031;-90
2022/10/07 00:47:09;;;;;;;0.20;0.10;;;;;;;;;;4914019;29;20050;-89
2022/10/07 00:49:51;;;;;;;0.20;0.10;;;;;;;;;;4914072;29;20048;-92
2022/10/07 00:52:29;;;;;;;0.20;0.10;;;;;;;;;;4909029;29;20103;-89
2022/10/07 00:54:57;;;;;;;0.20;0.10;;;;;;;;;;4898450;29;20318;-90
2022/10/07 00:57:36;;;;;;;0.20;0.10;;;;;;;;;;4884769;29;20250;-89
2022/10/07 01:00:30;;;;;;;0.20;0.20;;;;;;;;;;4909761;29;20087;-90
2022/10/07 01:02:57;;;;;;;0.20;0.10;;;;;;;;;;4896129;29;20076;-88
2022/10/07 01:05:33;;;;;;;0.22;0.20;;;;;;;;;;4894893;29;20032;-91
2022/10/07 01:08:03;;;;;;;0.20;0.10;;;;;;;;;;4927737;28;20402;-91
2022/10/07 01:10:42;;;;;;;0.20;0.10;;;;;;;;;;4898804;29;20103;-89
2022/10/07 01:13:13;;;;;;;0.20;0.15;;;;;;;;;;4885287;29;20115;-90
2022/10/07 01:15:45;;;;;;;0.45;0.45;;;;;;;;;;4929663;28;20506;-89
2022/10/07 01:18:27;;;;;;;0.20;0.10;;;;;;;;;;4932087;28;20059;-91
2022/10/07 01:20:53;;;;;;;0.20;0.20;;;;;;;;;;4928735;28;20059;-89
2022/10/07 01:23:19;;;;;;;0.20;0.10;;;;;;;;;;4897487;29;20051;-90
2022/10/07 01:26:03;;;;;;;0.65;0.40;;;;;;;;;;4898004;29;20414;-89
2022/10/07 01:28:59;;;;;;;0.20;0.10;;;;;;;;;;4900228;29;20044;-87
2022/10/07 01:31:36;;;;;;;0.20;0.10;;;;;;;;;;4886084;29;20051;-89
2022/10/07 01:34:04;;;;;;;0.20;0.10;;;;;;;;;;4929015;28;20044;-88
2022/10/07 01:36:35;;;;;;;0.20;0.10;;;;;;;;;;4933972;28;20044;-91
2022/10/07 01:39:04;;;;;;;0.20;0.10;;;;;;;;;;4905266;29;20036;-88
2022/10/07 01:41:30;;;;;;;0.20;0.10;;;;;;;;;;4897370;29;20337;-89
2022/10/07 01:43:57;;;;;;;0.20;0.10;;;;;;;;;;4897422;29;20500;-88
2022/10/07 01:46:25;;;;;;;0.20;0.10;;;;;;;;;;4898941;29;20064;-89
2022/10/07 01:48:51;;;;;;;0.20;0.10;;;;;;;;;;4898916;29;20040;-90
2022/10/07 01:51:23;;;;;;;0.20;0.10;;;;;;;;;;4902032;29;20431;-88
2022/10/07 01:54:08;;;;;;;0.20;0.10;;;;;;;;;;4933916;28;20415;-89
2022/10/07 01:56:40;;;;;;;0.30;0.20;;;;;;;;;;4903358;29;20048;-91
2022/10/07 01:59:15;;;;;;;0.20;0.10;;;;;;;;;;4931174;28;20059;-90
2022/10/07 02:01:47;;;;;;;0.20;0.10;;;;;;;;;;4903783;29;20059;-88
2022/10/07 02:04:17;;;;;;;0.20;0.10;;;;;;;;;;4899478;29;20496;-88
2022/10/07 02:06:46;;;;;;;0.20;0.10;;;;;;;;;;4901442;29;20044;-89
2022/10/07 02:09:20;;;;;;;0.20;0.10;;;;;;;;;;4905422;29;20570;-88
2022/10/07 02:11:49;;;;;;;0.20;0.10;;;;;;;;;;4897309;29;20032;-88
2022/10/07 02:14:19;;;;;;;0.20;0.10;;;;;;;;;;4898603;29;20130;-90
2022/10/07 02:16:47;;;;;;;0.40;0.35;;;;;;;;;;4930089;28;20040;-89
2022/10/07 02:19:25;;;;;;;0.20;0.10;;;;;;;;;;4934966;28;20136;-89
2022/10/07 02:21:59;;;;;;;0.20;0.10;;;;;;;;;;4929485;28;20064;-90
2022/10/07 02:24:30;;;;;;;0.20;0.10;;;;;;;;;;4935039;28;20062;-88
2022/10/07 02:26:58;;;;;;;0.60;0.57;;;;;;;;;;4930459;28;20044;-88
2022/10/07 02:29:32;;;;;;;0.20;0.10;;;;;;;;;;4899464;29;20032;-89
2022/10/07 02:32:09;;;;;;;0.20;0.10;;;;;;;;;;4900035;29;20045;-87
2022/10/07 02:34:37;;;;;;;0.20;0.10;;;;;;;;;;4894535;29;20080;-87
2022/10/07 02:37:14;;;;;;;0.20;0.10;;;;;;;;;;4914101;29;20044;-88
2022/10/07 02:39:52;;;;;;;0.20;0.10;;;;;;;;;;4897123;29;20459;-92
2022/10/07 02:42:38;;;;;;;0.20;0.10;;;;;;;;;;4930427;28;20044;-90
2022/10/07 02:45:22;;;;;;;0.20;0.10;;;;;;;;;;4924903;28;20074;-88
2022/10/07 02:48:13;;;;;;;0.20;0.10;;;;;;;;;;4913761;29;20039;-91
2022/10/07 02:50:59;;;;;;;0.20;0.10;;;;;;;;;;4897054;29;20079;-92
2022/10/07 02:53:27;;;;;;;0.20;0.10;;;;;;;;;;4899061;29;20525;-87
2022/10/07 02:55:54;;;;;;;0.20;0.10;;;;;;;;;;4897182;29;20054;-88
2022/10/07 02:58:21;;;;;;;0.20;0.10;;;;;;;;;;4911848;29;20043;-89
2022/10/07 03:00:52;;;;;;;0.20;0.10;;;;;;;;;;4929516;28;20463;-89
2022/10/07 03:03:24;;;;;;;0.20;0.10;;;;;;;;;;4928834;28;20098;-90
2022/10/07 03:05:51;;;;;;;;;;;;;;;;;;4896153;29;20187;-87
2022/10/07 03:08:21;;;;;;;0.20;0.10;;;;;;;;;;4911934;29;20029;-88
2022/10/07 03:10:47;;;;;;;0.20;0.10;;;;;;;;;;4895205;29;20110;-89
2022/10/07 03:13:25;;;;;;;0.20;0.10;;;;;;;;;;4912954;28;20075;-90
2022/10/07 03:15:55;;;;;;;1.95;1.42;;;;;;;;;;4924616;28;20624;-88
2022/10/07 03:21:31;;;;;;;0.20;0.10;;;;;;;;;;4896174;29;20056;-90
2022/10/07 03:24:03;;;;;;;0.20;0.10;;;;;;;;;;4879524;29;20083;-90
2022/10/07 03:26:33;;;;;;;0.20;0.10;;;;;;;;;;4895415;29;20487;-88
2022/10/07 03:32:48;;;;;;;0.20;0.10;;;;;;;;;;4896868;29;20569;-89
2022/10/07 03:35:17;;;;;;;0.20;0.10;;;;;;;;;;4896567;28;20048;-88
2022/10/07 03:37:47;;;;;;;0.20;0.10;;;;;;;;;;4897065;29;20652;-89
2022/10/07 03:40:16;;;;;;;0.20;0.10;;;;;;;;;;4878779;29;20059;-90
2022/10/07 03:42:42;;;;;;;0.20;0.10;;;;;;;;;;4895419;29;20072;-90
2022/10/07 03:45:59;;;;;;;0.20;0.10;;;;;;;;;;4895373;29;20111;-91
2022/10/07 03:48:26;;;;;;;0.20;0.10;;;;;;;;;;4890792;29;20124;-90
2022/10/07 03:54:16;;;;;;;0.20;0.10;;;;;;;;;;4896743;29;20048;-91
2022/10/07 03:56:51;;;;;;;0.20;0.10;;;;;;;;;;4899120;29;21034;-89
2022/10/07 03:59:22;;;;;;;0.20;0.10;;;;;;;;;;4928902;28;20456;-90
2022/10/07 04:01:48;;;;;;;0.20;0.10;;;;;;;;;;4900189;29;20039;-89
2022/10/07 04:04:21;;;;;;;0.20;0.10;;;;;;;;;;4913208;29;20051;-89
2022/10/07 04:07:21;;;;;;;0.20;0.10;;;;;;;;;;4913014;29;20059;-89
2022/10/07 04:10:00;;;;;;;6.90;0.22;;;;;;;;;;4882786;29;20139;-91
2022/10/07 04:12:32;;;;;;;0.20;0.10;;;;;;;;;;4930247;28;20406;-88
2022/10/07 04:15:18;;;;;;;0.20;0.13;;;;;;;;;;4911606;29;20357;-89
2022/10/07 04:17:58;;;;;;;0.20;0.10;;;;;;;;;;4897592;29;20111;-91
2022/10/07 04:20:27;;;;;;;0.20;0.10;;;;;;;;;;4899545;29;20082;-89
2022/10/07 04:22:53;;;;;;;0.20;0.10;;;;;;;;;;4898700;29;20502;-89
2022/10/07 04:25:42;;;;;;;0.20;0.10;;;;;;;;;;4932635;28;20095;-91
2022/10/07 04:28:25;;;;;;;0.20;0.10;;;;;;;;;;4909447;29;20407;-89
2022/10/07 04:31:04;;;;;;;0.20;0.10;;;;;;;;;;4910329;29;20048;-90
2022/10/07 04:34:21;;;;;;;0.20;0.10;;;;;;;;;;4924502;28;20056;-90
2022/10/07 04:36:53;;;;;;;0.20;0.10;;;;;;;;;;4937067;28;20039;-90
2022/10/07 04:39:34;;;;;;;0.20;0.10;;;;;;;;;;4911619;29;20058;-90
2022/10/07 04:42:06;;;;;;;0.20;0.10;;;;;;;;;;4934396;28;20123;-90
2022/10/07 04:44:35;;;;;;;0.20;0.10;;;;;;;;;;4903851;29;20050;-92
2022/10/07 04:50:02;;;;;;;0.20;0.10;;;;;;;;;;4923039;29;20143;-91
2022/10/07 04:52:28;;;;;;;0.20;0.10;;;;;;;;;;4913853;23;20043;-85
2022/10/07 04:54:55;;;;;;;0.20;0.10;;;;;;;;;;4949393;28;20410;-85
2022/10/07 04:57:21;;;;;;;0.20;0.10;;;;;;;;;;4930350;28;20047;-85
2022/10/07 04:59:47;;;;;;;0.20;0.10;;;;;;;;;;4896040;28;20074;-86
2022/10/07 05:02:13;;;;;;;0.20;0.10;;;;;;;;;;4917871;28;20094;-85
2022/10/07 05:04:39;;;;;;;0.20;0.10;;;;;;;;;;4920533;28;20040;-86
2022/10/07 05:07:05;;;;;;;0.20;0.10;;;;;;;;;;4940391;28;20505;-87
2022/10/07 05:09:31;;;;;;;0.20;0.10;;;;;;;;;;4919424;28;20053;-86
2022/10/07 05:11:57;;;;;;;0.47;0.25;;;;;;;;;;4940402;28;20074;-83
2022/10/07 05:14:23;;;;;;;0.32;0.20;;;;;;;;;;4925474;29;20035;-85
2022/10/07 05:16:50;;;;;;;0.20;0.10;;;;;;;;;;4926549;28;20046;-85
2022/10/07 05:19:16;;;;;;;0.50;0.40;;;;;;;;;;4963591;28;20085;-84
2022/10/07 05:21:42;;;;;;;0.20;0.10;;;;;;;;;;4937291;28;20432;-86
2022/10/07 05:24:09;;;;;;;0.20;0.10;;;;;;;;;;4907040;28;20035;-86
2022/10/07 05:26:35;;;;;;;0.20;0.10;;;;;;;;;;4933879;28;20051;-87
2022/10/07 05:29:01;;;;;;;0.20;0.10;;;;;;;;;;4900993;28;20093;-87
2022/10/07 05:31:27;;;;;;;0.20;0.10;;;;;;;;;;4932732;28;20082;-84
2022/10/07 05:33:53;;;;;;;0.20;0.17;;;;;;;;;;4899892;28;20460;-84
2022/10/07 05:36:19;;;;;;;0.20;0.10;;;;;;;;;;4953756;28;20040;-86
2022/10/07 05:38:46;;;;;;;0.43;0.43;;;;;;;;;;4939190;28;20079;-87
2022/10/07 05:41:12;;;;;;;0.20;0.10;;;;;;;;;;4913029;28;20043;-85
2022/10/07 05:43:41;;;;;;;0.73;0.47;;;;;;;;;;4912459;28;20074;-85
2022/10/07 05:46:09;;;;;;;0.20;0.10;;;;;;;;;;4930635;28;20546;-85
2022/10/07 05:48:36;;;;;;;0.20;0.10;;;;;;;;;;4921662;28;22192;-86
2022/10/07 05:51:02;;;;;;;0.20;0.10;;;;;;;;;;4925524;28;20047;-87
2022/10/07 05:53:29;;;;;;;0.20;0.10;;;;;;;;;;4920952;28;20094;-87
2022/10/07 05:55:55;;;;;;;0.20;0.10;;;;;;;;;;4896865;28;20059;-89
2022/10/07 05:58:22;;;;;;;0.20;0.10;;;;;;;;;;4928088;28;20047;-86
2022/10/07 06:00:52;;;;;;;0.20;0.10;;;;;;;;;;4920581;28;20047;-85
2022/10/07 06:03:19;;;;;;;0.20;0.10;;;;;;;;;;4924810;29;20136;-84
2022/10/07 06:05:45;;;;;;;0.20;0.10;;;;;;;;;;4952992;28;20039;-84
2022/10/07 06:08:11;;;;;;;0.20;0.10;;;;;;;;;;4921706;29;20043;-88
2022/10/07 06:13:23;;;;;;;0.20;0.10;;;;;;;;;;4939300;28;20410;-88
2022/10/07 06:15:49;;;;;;;0.20;0.10;;;;;;;;;;4939538;28;20047;-85
2022/10/07 06:18:15;;;;;;;0.20;0.10;;;;;;;;;;4941169;28;20047;-86
2022/10/07 06:20:41;;;;;;;0.20;0.10;;;;;;;;;;4919534;28;20519;-85
2022/10/07 06:23:07;;;;;;;0.20;0.10;;;;;;;;;;4917997;29;20157;-86
2022/10/07 06:25:34;;;;;;;0.20;0.10;;;;;;;;;;4923440;28;20039;-85
2022/10/07 06:28:00;;;;;;;0.30;0.25;;;;;;;;;;4932532;28;20039;-88
2022/10/07 06:30:26;;;;;;;0.20;0.05;;;;;;;;;;4918268;28;20047;-90
2022/10/07 06:32:52;;;;;;;0.20;0.10;;;;;;;;;;4935481;28;20117;-87
2022/10/07 06:35:18;;;;;;;0.20;0.10;;;;;;;;;;4919570;29;20082;-85
2022/10/07 06:37:45;;;;;;;0.20;0.10;;;;;;;;;;4946959;28;20075;-88
2022/10/07 06:40:11;;;;;;;0.20;0.10;;;;;;;;;;4910047;29;20039;-84
2022/10/07 06:42:37;;;;;;;0.20;0.10;;;;;;;;;;4924114;28;20035;-85
2022/10/07 06:45:03;;;;;;;0.20;0.15;;;;;;;;;;4912679;29;20075;-86
2022/10/07 06:47:29;;;;;;;0.40;0.20;;;;;;;;;;4933320;28;20035;-86
2022/10/07 06:49:55;;;;;;;0.20;0.10;;;;;;;;;;4937421;28;20328;-86
2022/10/07 06:52:22;;;;;;;0.20;0.10;;;;;;;;;;4900535;28;20039;-88
2022/10/07 06:54:48;;;;;;;0.20;0.10;;;;;;;;;;4937572;28;20043;-85
2022/10/07 06:57:14;;;;;;;0.20;0.10;;;;;;;;;;4920651;29;20047;-85
2022/10/07 06:59:41;;;;;;;0.20;0.10;;;;;;;;;;4940670;28;20090;-82
2022/10/07 07:02:07;;;;;;;0.75;0.55;;;;;;;;;;4922038;28;20122;-85
2022/10/07 07:04:34;;;;;;;0.20;0.10;;;;;;;;;;4923635;28;20071;-82
2022/10/07 07:07:01;;;;;;;0.20;0.10;;;;;;;;;;4920318;29;20130;-85
2022/10/07 07:09:27;;;;;;;0.20;0.10;;;;;;;;;;4924352;28;20685;-85
2022/10/07 07:11:53;;;;;;;0.20;0.10;;;;;;;;;;4954781;28;20073;-84
2022/10/07 07:14:19;;;;;;;0.20;0.10;;;;;;;;;;4919983;29;20051;-87
2022/10/07 07:16:45;;;;;;;0.20;0.10;;;;;;;;;;4920229;28;20797;-86
2022/10/07 07:19:13;;;;;;;0.20;0.13;;;;;;;;;;4940392;28;20050;-84
2022/10/07 07:25:14;;;;;;;0.20;0.10;;;;;;;;;;4940498;28;20125;-85
2022/10/07 07:27:40;;;;;;;0.38;0.38;;;;;;;;;;4929010;28;20051;-85
2022/10/07 07:30:06;;;;;;;0.20;0.10;;;;;;;;;;4917707;28;20117;-86
2022/10/07 07:32:32;;;;;;;0.43;0.10;;;;;;;;;;4936060;28;20047;-87
2022/10/07 07:35:03;;;;;;;0.20;0.10;;;;;;;;;;4923295;29;20395;-85
2022/10/07 07:37:30;;;;;;;0.20;0.10;;;;;;;;;;4922953;28;20047;-84
2022/10/07 07:39:56;;;;;;;0.20;0.10;;;;;;;;;;4923500;29;20054;-87
2022/10/07 07:42:23;;;;;;;0.20;0.10;;;;;;;;;;4939368;28;20043;-86
2022/10/07 07:44:49;;;;;;;0.20;0.10;;;;;;;;;;4923311;28;20138;-88
2022/10/07 07:47:15;;;;;;;0.20;0.10;;;;;;;;;;4937994;28;20504;-86
2022/10/07 07:49:42;;;;;;;0.20;0.10;;;;;;;;;;4924409;28;20043;-86
2022/10/07 07:52:08;;;;;;;0.20;0.10;;;;;;;;;;4922158;29;20051;-86
2022/10/07 07:54:36;;;;;;;0.20;0.10;;;;;;;;;;4944554;28;20066;-85
2022/10/07 07:57:03;;;;;;;0.20;0.10;;;;;;;;;;4929887;28;20058;-84
2022/10/07 07:59:31;;;;;;;0.20;0.10;;;;;;;;;;4946322;28;20074;-87
2022/10/07 08:01:57;;;;;;;0.20;0.10;;;;;;;;;;4944897;28;20516;-84
2022/10/07 08:04:24;;;;;;;0.20;0.10;;;;;;;;;;4922140;28;20032;-84
2022/10/07 08:06:50;;;;;;;0.20;0.10;;;;;;;;;;4923369;28;20082;-85
2022/10/07 08:09:17;;;;;;;0.20;0.10;;;;;;;;;;4945292;28;20050;-86
2022/10/07 08:11:45;;;;;;;0.20;0.10;;;;;;;;;;4927015;28;20043;-85
2022/10/07 08:14:12;;;;;;;0.20;0.10;;;;;;;;;;4927598;29;20131;-86
2022/10/07 08:16:38;;;;;;;0.20;0.10;;;;;;;;;;4926925;28;22090;-85
2022/10/07 08:19:04;;;;;;;0.20;0.10;;;;;;;;;;4937077;28;20050;-86
2022/10/07 08:21:33;;;;;;;0.20;0.10;;;;;;;;;;4942281;28;20043;-85
2022/10/07 08:24:02;;;;;;;0.20;0.10;;;;;;;;;;4926451;29;20049;-86
2022/10/07 08:26:29;;;;;;;0.22;0.10;;;;;;;;;;4962051;28;20055;-83
2022/10/07 08:28:56;;;;;;;0.47;0.20;;;;;;;;;;4940275;28;20043;-84
2022/10/07 08:31:26;;;;;;;0.20;0.10;;;;;;;;;;4928238;29;20061;-82
2022/10/07 08:33:53;;;;;;;0.20;0.10;;;;;;;;;;4928536;28;20166;-84
2022/10/07 08:36:20;;;;;;;0.20;0.10;;;;;;;;;;4927807;29;20517;-82
2022/10/07 08:38:47;;;;;;;0.20;0.10;;;;;;;;;;4941366;28;20171;-82
2022/10/07 08:41:33;;;;;;;0.43;0.43;;;;;;;;;;4938461;28;20501;-84
2022/10/07 08:44:06;;;;;;;0.20;0.10;;;;;;;;;;4938296;28;20043;-83
2022/10/07 08:46:33;;;;;;;0.20;0.10;;;;;;;;;;4920886;28;20133;-83
2022/10/07 08:49:05;;;;;;;0.20;0.10;;;;;;;;;;4936559;28;20043;-81
2022/10/07 08:51:38;;;;;;;0.68;0.17;;;;;;;;;;4933241;28;20071;-87
2022/10/07 08:54:04;;;;;;;0.20;0.10;;;;;;;;;;4924684;29;20039;-83
2022/10/07 08:56:32;;;;;;;0.20;0.10;;;;;;;;;;4940081;28;20533;-85
2022/10/07 08:59:17;;;;;;;0.20;0.10;;;;;;;;;;4932724;28;20492;-83
2022/10/07 09:02:02;;;;;;;0.20;0.10;;;;;;;;;;4939499;28;20047;-87
2022/10/07 09:04:28;;;;;;;0.20;0.10;;;;;;;;;;4954103;28;20564;-87
2022/10/07 09:07:03;;;;;;;0.20;0.10;;;;;;;;;;4931422;28;20057;-82
2022/10/07 09:09:37;;;;;;;0.20;0.10;;;;;;;;;;4939768;28;20047;-83
2022/10/07 09:12:07;;;;;;;1.00;0.82;;;;;;;;;;4951837;28;20185;-89
2022/10/07 09:14:39;;;;;;;;;;;;;;;;;;4952778;28;20047;-85
2022/10/07 09:17:12;;;;;;;0.75;0.35;;;;;;;;;;4937585;28;20891;-84
2022/10/07 09:19:41;;;;;;;0.20;0.10;;;;;;;;;;4940765;28;20062;-84
2022/10/07 09:22:30;;;;;;;1.55;0.93;;;;;;;;;;4941604;28;20165;-84
2022/10/07 09:25:16;;;;;;;0.20;0.10;;;;;;;;;;4930353;28;20051;-83
2022/10/07 09:27:42;;;;;;;0.20;0.00;;;;;;;;;;4954626;28;20050;-85
2022/10/07 09:30:12;;;;;;;0.30;0.10;;;;;;;;;;4954055;28;20055;-85
2022/10/07 09:32:40;;;;;;;0.20;0.10;;;;;;;;;;4941795;28;20051;-86
2022/10/07 09:35:06;;;;;;;5.30;1.67;;;;;;;;;;4943021;28;20054;-88
2022/10/07 09:37:32;;;;;;;0.20;0.10;;;;;;;;;;4920649;28;20074;-86
2022/10/07 09:40:21;;;;;;;0.20;0.10;;;;;;;;;;4953342;28;20047;-85
2022/10/07 09:42:53;;;;;;;0.20;0.10;;;;;;;;;;4937804;28;20094;-87
2022/10/07 09:45:21;;;;;;;0.20;0.10;;;;;;;;;;4932224;28;20043;-84
2022/10/07 09:47:56;;;;;;;0.20;0.10;;;;;;;;;;4924549;28;20043;-84
2022/10/07 09:50:52;;;;;;;0.20;0.10;;;;;;;;;;4929246;28;20059;-86
2022/10/07 09:53:20;;;;;;;0.20;0.10;;;;;;;;;;4920859;28;20070;-86
2022/10/07 09:55:46;;;;;;;0.20;0.10;;;;;;;;;;4926717;28;20051;-85
2022/10/07 09:58:17;;;;;;;0.20;0.10;;;;;;;;;;4907062;28;20039;-89
2022/10/07 10:00:44;;;;;;;0.20;0.20;;;;;;;;;;4953895;28;20047;-84
2022/10/07 10:03:11;;;;;;;0.20;0.10;;;;;;;;;;4929484;28;20138;-85
2022/10/07 10:05:38;;;;;;;0.20;0.10;;;;;;;;;;4907069;28;20118;-84
2022/10/07 10:08:06;;;;;;;0.20;0.10;;;;;;;;;;4913662;28;20130;-87
2022/10/07 10:10:37;;;;;;;0.70;0.70;;;;;;;;;;4943967;28;20039;-86
2022/10/07 10:13:04;;;;;;;0.20;0.10;;;;;;;;;;4921441;28;20141;-83
2022/10/07 10:15:40;;;;;;;0.20;0.10;;;;;;;;;;4919331;28;20129;-82
2022/10/07 10:18:25;;;;;;;0.20;0.10;;;;;;;;;;4906569;28;20051;-83
2022/10/07 10:20:51;;;;;;;0.20;0.13;;;;;;;;;;4914371;28;20222;-85
2022/10/07 10:23:23;;;;;;;0.20;0.00;;;;;;;;;;4929118;28;20043;-85
2022/10/07 10:28:47;;;;;;;0.20;0.10;;;;;;;;;;4929110;28;20099;-83
2022/10/07 10:31:34;;;;;;;0.20;0.10;;;;;;;;;;4931322;28;20078;-86
2022/10/07 10:34:00;;;;;;;0.20;0.10;;;;;;;;;;4919969;28;20047;-85
2022/10/07 10:36:27;;;;;;;0.20;0.10;;;;;;;;;;4926217;28;20043;-85
2022/10/07 10:39:17;;;;;;;0.98;0.20;;;;;;;;;;4925530;28;20043;-85
2022/10/07 10:41:43;;;;;;;0.20;0.10;;;;;;;;;;4906990;28;22363;-84
2022/10/07 10:44:21;;;;;;;0.20;0.10;;;;;;;;;;4925877;28;20046;-85
2022/10/07 10:47:06;;;;;;;0.20;0.10;;;;;;;;;;4919437;28;20061;-86
2022/10/07 10:49:45;;;;;;;0.20;0.10;;;;;;;;;;4909281;28;20047;-87
2022/10/07 10:52:13;;;;;;;0.20;0.10;;;;;;;;;;4926226;28;20093;-84
2022/10/07 10:55:11;;;;;;;0.80;0.20;;;;;;;;;;4938932;23;20889;-82
2022/10/07 10:57:50;;;;;;;0.20;0.10;;;;;;;;;;4871500;29;20430;-81
2022/10/07 11:00:20;;;;;;;0.20;0.10;;;;;;;;;;4877509;29;21039;-84
2022/10/07 11:02:59;;;;;;;0.20;0.10;;;;;;;;;;4893191;29;20075;-84
2022/10/07 11:05:35;;;;;;;0.20;0.10;;;;;;;;;;4882642;29;21040;-82
2022/10/07 11:08:07;;;;;;;1.15;1.08;;;;;;;;;;4862165;29;20160;-82
2022/10/07 11:10:40;;;;;;;0.20;0.10;;;;;;;;;;4861604;29;20052;-84
2022/10/07 11:13:06;;;;;;;;;;;;;;;;;;4881271;29;20423;-82
2022/10/07 11:16:01;;;;;;;1.05;0.20;;;;;;;;;;4888723;29;19975;-84
2022/10/07 11:18:49;;;;;;;0.20;0.10;;;;;;;;;;4863614;29;20549;-83
2022/10/07 11:21:22;;;;;;;0.30;0.20;;;;;;;;;;4875720;29;20088;-86
2022/10/07 11:23:54;;;;;;;0.20;0.10;;;;;;;;;;4873154;29;20047;-83
2022/10/07 11:26:23;;;;;;;0.20;0.10;;;;;;;;;;4859308;29;20135;-81
2022/10/07 11:28:53;;;;;;;0.20;0.17;;;;;;;;;;4876938;29;20446;-85
2022/10/07 11:31:41;;;;;;;0.20;0.10;;;;;;;;;;4885568;29;20592;-83
2022/10/07 11:34:07;;;;;;;0.20;0.10;;;;;;;;;;4880584;29;20492;-82
2022/10/07 11:36:55;;;;;;;0.20;0.10;;;;;;;;;;4896380;29;20048;-80
2022/10/07 11:39:22;;;;;;;0.20;0.10;;;;;;;;;;4874187;29;20131;-82
2022/10/07 11:41:53;;;;;;;0.20;0.10;;;;;;;;;;4872651;29;20103;-85
2022/10/07 11:44:27;;;;;;;0.20;0.10;;;;;;;;;;4890665;29;20518;-82
2022/10/07 11:47:06;;;;;;;0.70;0.70;;;;;;;;;;4890698;29;20048;-88
2022/10/07 11:49:40;;;;;;;0.20;0.10;;;;;;;;;;4874339;29;20672;-88
2022/10/07 11:52:25;;;;;;;1.17;0.47;;;;;;;;;;4890685;29;20081;-83
2022/10/07 11:54:58;;;;;;;0.25;0.25;;;;;;;;;;4885444;29;20058;-81
2022/10/07 11:57:25;;;;;;;0.20;0.10;;;;;;;;;;4888636;29;20044;-84
2022/10/07 12:00:21;;;;;;;0.20;0.20;;;;;;;;;;4876018;29;20051;-84
2022/10/07 12:02:47;;;;;;;0.20;0.10;;;;;;;;;;4885156;29;20083;-82
2022/10/07 12:05:32;;;;;;;0.45;0.45;;;;;;;;;;4865390;29;20082;-81
2022/10/07 12:08:22;;;;;;;0.20;0.10;;;;;;;;;;4870599;29;20585;-79
2022/10/07 12:10:52;;;;;;;0.20;0.10;;;;;;;;;;4885914;29;20044;-79
2022/10/07 12:13:19;;;;;;;0.20;0.10;;;;;;;;;;4896084;29;20044;-81
2022/10/07 12:15:46;;;;;;;0.20;0.10;;;;;;;;;;4870480;29;20044;-85
2022/10/07 12:18:15;;;;;;;0.20;0.10;;;;;;;;;;4868863;29;20052;-80
2022/10/07 12:20:54;;;;;;;0.20;0.10;;;;;;;;;;4884588;29;20058;-81
2022/10/07 12:23:27;;;;;;;0.50;0.50;;;;;;;;;;4868599;29;20047;-81
2022/10/07 12:25:57;;;;;;;0.20;0.10;;;;;;;;;;4870101;29;20566;-80
2022/10/07 12:28:23;;;;;;;0.20;0.10;;;;;;;;;;4885301;29;20051;-83
2022/10/07 12:30:55;;;;;;;0.20;0.10;;;;;;;;;;4887725;29;20048;-82
2022/10/07 12:33:39;;;;;;;0.20;0.10;;;;;;;;;;4872135;29;20179;-83
2022/10/07 12:36:20;;;;;;;0.20;0.10;;;;;;;;;;4885346;29;20510;-82
2022/10/07 12:38:58;;;;;;;0.20;0.10;;;;;;;;;;4883665;29;20082;-80
2022/10/07 12:41:31;;;;;;;2.05;0.75;;;;;;;;;;4879080;29;20160;-81
2022/10/07 12:44:13;;;;;;;0.20;0.10;;;;;;;;;;4877542;29;20652;-87
2022/10/07 12:46:55;;;;;;;1.08;0.98;;;;;;;;;;4872317;29;20036;-81
2022/10/07 12:49:40;;;;;;;0.20;0.10;;;;;;;;;;4880388;29;20036;-85
2022/10/07 12:52:18;;;;;;;0.20;0.10;;;;;;;;;;4881294;29;20044;-82
2022/10/07 12:54:50;;;;;;;0.20;0.20;;;;;;;;;;4882730;29;20060;-81
2022/10/07 12:57:23;;;;;;;0.40;0.40;;;;;;;;;;4903658;29;20143;-84
2022/10/07 13:00:11;;;;;;;0.20;0.10;;;;;;;;;;4891376;29;20455;-82
2022/10/07 13:02:49;;;;;;;0.20;0.10;;;;;;;;;;4886856;29;20138;-81
2022/10/07 13:05:18;;;;;;;0.20;0.10;;;;;;;;;;4893600;29;20075;-81
2022/10/07 13:07:47;;;;;;;0.20;0.10;;;;;;;;;;4882416;29;20044;-85
2022/10/07 13:10:13;;;;;;;0.25;0.25;;;;;;;;;;4887098;29;20044;-83
2022/10/07 13:12:44;;;;;;;0.20;0.10;;;;;;;;;;4901064;29;20040;-80
2022/10/07 13:15:13;;;;;;;0.20;0.10;;;;;;;;;;4868506;29;20119;-82
2022/10/07 13:17:45;;;;;;;0.20;0.10;;;;;;;;;;4890038;29;20036;-83
2022/10/07 13:20:29;;;;;;;0.20;0.10;;;;;;;;;;4899163;29;20047;-84
2022/10/07 13:22:55;;;;;;;0.20;0.10;;;;;;;;;;4873312;29;20598;-84
2022/10/07 13:25:22;;;;;;;0.20;0.10;;;;;;;;;;4892946;29;20119;-85
2022/10/07 13:27:56;;;;;;;0.20;0.10;;;;;;;;;;4884357;29;20088;-88
2022/10/07 13:30:39;;;;;;;0.20;0.10;;;;;;;;;;4890597;29;20032;-82
2022/10/07 13:33:35;;;;;;;0.20;0.10;;;;;;;;;;4893963;29;20062;-86
2022/10/07 13:36:12;;;;;;;0.20;0.10;;;;;;;;;;4877802;29;20220;-84
2022/10/07 13:38:38;;;;;;;0.20;0.10;;;;;;;;;;4894791;29;20673;-84
2022/10/07 13:41:04;;;;;;;3.40;0.50;;;;;;;;;;4887210;29;21904;-82
2022/10/07 13:43:31;;;;;;;0.20;0.10;;;;;;;;;;4880813;29;20032;-86
2022/10/07 13:45:58;;;;;;;0.20;0.10;;;;;;;;;;4895640;29;20044;-87
2022/10/07 13:48:26;;;;;;;0.20;0.10;;;;;;;;;;4894441;29;20091;-80
2022/10/07 13:50:55;;;;;;;0.20;0.10;;;;;;;;;;4894454;29;20070;-84
2022/10/07 13:53:22;;;;;;;0.20;0.10;;;;;;;;;;4894301;29;20130;-82
2022/10/07 13:56:03;;;;;;;0.20;0.10;;;;;;;;;;4890614;29;20161;-87
2022/10/07 13:58:33;;;;;;;0.20;0.10;;;;;;;;;;4902915;29;20736;-85
2022/10/07 14:01:02;;;;;;;0.20;0.10;;;;;;;;;;4896745;29;20044;-81
2022/10/07 14:03:28;;;;;;;0.20;0.10;;;;;;;;;;4891227;29;20119;-81
2022/10/07 14:05:57;;;;;;;0.20;0.10;;;;;;;;;;4862043;29;20107;-85
2022/10/07 14:08:26;;;;;;;1.65;0.20;;;;;;;;;;4881602;29;20043;-80
2022/10/07 14:11:02;;;;;;;0.20;0.10;;;;;;;;;;4865838;29;20099;-85
2022/10/07 14:13:29;;;;;;;0.20;0.10;;;;;;;;;;4870159;29;20628;-83
2022/10/07 14:15:56;;;;;;;0.20;0.10;;;;;;;;;;4895020;29;20364;-81
2022/10/07 14:18:23;;;;;;;0.20;0.10;;;;;;;;;;4890571;29;20060;-85
2022/10/07 14:20:53;;;;;;;0.20;0.10;;;;;;;;;;4888819;29;20056;-84
2022/10/07 14:23:24;;;;;;;0.20;0.10;;;;;;;;;;4878929;29;20083;-81
2022/10/07 14:25:53;;;;;;;0.20;0.10;;;;;;;;;;4890031;29;20154;-88
2022/10/07 14:28:27;;;;;;;0.82;0.82;;;;;;;;;;4893635;29;20047;-80
2022/10/07 14:37:02;;;;;;;0.20;0.10;;;;;;;;;;4879912;29;20050;-83
2022/10/07 14:39:38;;;;;;;0.20;0.10;;;;;;;;;;4883539;29;21059;-82
2022/10/07 14:42:08;;;;;;;0.20;0.10;;;;;;;;;;4880312;29;20521;-84
2022/10/07 14:44:35;;;;;;;0.20;0.10;;;;;;;;;;4881821;29;20044;-81
2022/10/07 14:47:10;;;;;;;0.20;0.10;;;;;;;;;;4871555;29;20048;-82
2022/10/07 14:49:36;;;;;;;0.20;0.10;;;;;;;;;;4881963;29;20534;-88
2022/10/07 14:52:02;;;;;;;0.28;0.25;;;;;;;;;;4872812;29;20346;-83
2022/10/07 14:54:28;;;;;;;0.20;0.10;;;;;;;;;;4866194;29;20044;-82
2022/10/07 14:56:54;;;;;;;0.30;0.30;;;;;;;;;;4880759;29;20564;-84
2022/10/07 14:59:22;;;;;;;0.20;0.10;;;;;;;;;;4866104;29;20051;-84
2022/10/07 15:01:48;;;;;;;0.98;0.95;;;;;;;;;;4891793;29;20071;-88
2022/10/07 15:04:33;;;;;;;0.20;0.10;;;;;;;;;;4867666;29;20116;-83
2022/10/07 15:07:02;;;;;;;0.20;0.10;;;;;;;;;;4865191;29;20622;-87
2022/10/07 15:09:31;;;;;;;0.20;0.10;;;;;;;;;;4872063;29;20047;-89
2022/10/07 15:12:05;;;;;;;0.30;0.30;;;;;;;;;;4884619;29;20487;-88
2022/10/07 15:14:31;;;;;;;0.20;0.10;;;;;;;;;;4893745;29;20691;-84
2022/10/07 15:17:00;;;;;;;0.20;0.10;;;;;;;;;;4882053;29;20048;-84
2022/10/07 15:19:29;;;;;;;0.20;0.10;;;;;;;;;;4869707;29;20055;-85
2022/10/07 15:21:55;;;;;;;0.30;0.30;;;;;;;;;;4864291;29;20138;-83
2022/10/07 15:24:24;;;;;;;0.20;0.10;;;;;;;;;;4876413;29;20084;-85
2022/10/07 15:26:50;;;;;;;0.20;0.20;;;;;;;;;;4873668;29;20048;-80
2022/10/07 15:29:22;;;;;;;0.20;0.10;;;;;;;;;;4893424;29;20048;-87
2022/10/07 15:32:04;;;;;;;;;;;;;;;;;;;;;
2022/10/07 15:34:33;;;;;;;0.20;0.10;;;;;;;;;;4869639;29;20048;-86
2022/10/07 15:37:02;;;;;;;0.20;0.10;;;;;;;;;;4874833;29;20059;-87
2022/10/07 15:39:28;;;;;;;0.20;0.10;;;;;;;;;;4890966;29;20139;-85
2022/10/07 15:41:54;;;;;;;0.20;0.10;;;;;;;;;;4887996;29;20200;-84
2022/10/07 15:44:21;;;;;;;0.20;0.10;;;;;;;;;;4891321;29;20463;-85
2022/10/07 15:46:51;;;;;;;0.20;0.20;;;;;;;;;;4891707;29;20044;-86
2022/10/07 15:49:18;;;;;;;0.20;0.10;;;;;;;;;;4879848;29;20051;-86